Irini — SYZA — position and weather

sailwx.info

Track history (hours):
 
Tides and Currents Weather Stations Pressure Air Temp Water Temp Dewpoint Dewpoint Depression Visibility Wind Speed Wind Dir Waves Ship Positions

Irini

Last reported at 2014-Oct-30 14:32 UTC. Time now 2014-Oct-31 15:36 UTC.
Position N 36°14' E 026°39'.

Length 137 m; draft 7.4 m.

Type: Tanker. MMSI: 240052000.

Date/timePositionNaut miles runAvg speedWind from/ knotsBaromVisibWave heightAir tempDewpointWater temp
2014-Oct-30 14:32N 36°14' E 026°39'1110.9
2014-Oct-30 13:33N 36°19' E 026°27'1110.5
2014-Oct-30 12:33N 36°24' E 026°16'1110.9
2014-Oct-30 11:33N 36°30' E 026°04'1110.7
2014-Oct-30 10:33N 36°35' E 025°53'1110.9
2014-Oct-30 09:33N 36°41' E 025°41'1110.8
2014-Oct-30 08:33N 36°46' E 025°29'1110.6
2014-Oct-30 07:33N 36°50' E 025°17'1110.5
2014-Oct-30 06:33N 36°53' E 025°04'1010.3
2014-Oct-30 05:33N 36°58' E 024°53'1110.7
2014-Oct-30 04:33N 37°05' E 024°43'1010.1
2014-Oct-30 03:33N 37°12' E 024°34'1210.1
2014-Oct-30 02:25N 37°17' E 024°21'1110.6
2014-Oct-30 01:23N 37°23' E 024°10'1910.6
2014-Oct-29 23:33N 37°35' E 023°50'1110.6
2014-Oct-29 22:33N 37°43' E 023°41'1110.9
2014-Oct-29 21:33N 37°52' E 023°35'2 1.5
2014-Oct-29 20:32N 37°54' E 023°34'0 0.0
2014-Oct-29 19:32N 37°54' E 023°34'0 0.0
2014-Oct-29 18:32N 37°54' E 023°34'0 0.0
2014-Oct-29 17:32N 37°54' E 023°34'0 0.0
2014-Oct-29 16:32N 37°54' E 023°34'0 0.0
2014-Oct-29 15:32N 37°54' E 023°34'0 0.0
2014-Oct-29 14:32N 37°54' E 023°34'0 0.0
2014-Oct-29 13:32N 37°54' E 023°34'0 0.4
2014-Oct-29 12:34N 37°54' E 023°34'6 6.0
2014-Oct-29 11:33N 37°60' E 023°33'3 0.1
2014-Oct-28 07:33N 38°02' E 023°36'4 4.6
2014-Oct-28 06:34N 37°57' E 023°34'5 5.2
2014-Oct-28 05:34N 37°53' E 023°38'1111.4
2014-Oct-28 04:34N 37°43' E 023°44'1111.0
2014-Oct-28 03:31N 37°37' E 023°56'3611.6
2014-Oct-28 00:27N 37°57' E 024°34'2411.5
2014-Oct-27 22:19N 38°21' E 024°39'  
2014-Oct-23 21:32N 37°52' E 024°31'1211.7
2014-Oct-23 20:29N 37°44' E 024°19'1111.7
2014-Oct-23 19:33N 37°37' E 024°08'1711.4
2014-Oct-23 18:05N 37°38' E 023°47'610.8
2014-Oct-23 17:34N 37°41' E 023°42'1111.4
2014-Oct-23 16:34N 37°52' E 023°35'9 8.8
2014-Oct-23 15:34N 38°00' E 023°33'2 1.5
2014-Oct-23 14:28N 38°01' E 023°31'0 0.0
2014-Oct-23 13:10N 38°01' E 023°31'0 0.0
2014-Oct-23 12:31N 38°01' E 023°31'0 0.0
2014-Oct-23 11:28N 38°02' E 023°31'0 0.0
2014-Oct-23 10:28N 38°01' E 023°31'0 0.0
2014-Oct-23 09:31N 38°01' E 023°31'0 0.0
2014-Oct-23 08:25N 38°01' E 023°31'0 0.1
2014-Oct-23 07:31N 38°02' E 023°31'2 1.6
2014-Oct-23 06:33N 38°01' E 023°33'2 1.8
2014-Oct-23 05:33N 38°02' E 023°36'49 1.0
2014-Oct-21 04:28N 38°13' E 024°36'3711.9
2014-Oct-21 01:22N 38°44' E 024°11'  
Track history (hours):
 
Tides and Currents Weather Stations Pressure Air Temp Water Temp Dewpoint Dewpoint Depression Visibility Wind Speed Wind Dir Waves Ship Positions

Irini

Last reported at 2014-Oct-30 14:32 UTC. Time now 2014-Oct-31 15:36 UTC.
Position N 36°14' E 026°39'.

Length 137 m; draft 7.4 m.

Type: Tanker. MMSI: 240052000.

Date/timePositionNaut miles runAvg speedWind from/ knotsBaromVisibWave heightAir tempDewpointWater temp
2014-Oct-30 14:32N 36°14' E 026°39'1110.9
2014-Oct-30 13:33N 36°19' E 026°27'1110.5
2014-Oct-30 12:33N 36°24' E 026°16'1110.9
2014-Oct-30 11:33N 36°30' E 026°04'1110.7
2014-Oct-30 10:33N 36°35' E 025°53'1110.9
2014-Oct-30 09:33N 36°41' E 025°41'1110.8
2014-Oct-30 08:33N 36°46' E 025°29'1110.6
2014-Oct-30 07:33N 36°50' E 025°17'1110.5
2014-Oct-30 06:33N 36°53' E 025°04'1010.3
2014-Oct-30 05:33N 36°58' E 024°53'1110.7
2014-Oct-30 04:33N 37°05' E 024°43'1010.1
2014-Oct-30 03:33N 37°12' E 024°34'1210.1
2014-Oct-30 02:25N 37°17' E 024°21'1110.6
2014-Oct-30 01:23N 37°23' E 024°10'1910.6
2014-Oct-29 23:33N 37°35' E 023°50'1110.6
2014-Oct-29 22:33N 37°43' E 023°41'1110.9
2014-Oct-29 21:33N 37°52' E 023°35'2 1.5
2014-Oct-29 20:32N 37°54' E 023°34'0 0.0
2014-Oct-29 19:32N 37°54' E 023°34'0 0.0
2014-Oct-29 18:32N 37°54' E 023°34'0 0.0
2014-Oct-29 17:32N 37°54' E 023°34'0 0.0
2014-Oct-29 16:32N 37°54' E 023°34'0 0.0
2014-Oct-29 15:32N 37°54' E 023°34'0 0.0
2014-Oct-29 14:32N 37°54' E 023°34'0 0.0
2014-Oct-29 13:32N 37°54' E 023°34'0 0.4
2014-Oct-29 12:34N 37°54' E 023°34'6 6.0
2014-Oct-29 11:33N 37°60' E 023°33'3 0.1
2014-Oct-28 07:33N 38°02' E 023°36'4 4.6
2014-Oct-28 06:34N 37°57' E 023°34'5 5.2
2014-Oct-28 05:34N 37°53' E 023°38'1111.4
2014-Oct-28 04:34N 37°43' E 023°44'1111.0
2014-Oct-28 03:31N 37°37' E 023°56'3611.6
2014-Oct-28 00:27N 37°57' E 024°34'2411.5
2014-Oct-27 22:19N 38°21' E 024°39'  
2014-Oct-23 21:32N 37°52' E 024°31'1211.7
2014-Oct-23 20:29N 37°44' E 024°19'1111.7
2014-Oct-23 19:33N 37°37' E 024°08'1711.4
2014-Oct-23 18:05N 37°38' E 023°47'610.8
2014-Oct-23 17:34N 37°41' E 023°42'1111.4
2014-Oct-23 16:34N 37°52' E 023°35'9 8.8
2014-Oct-23 15:34N 38°00' E 023°33'2 1.5
2014-Oct-23 14:28N 38°01' E 023°31'0 0.0
2014-Oct-23 13:10N 38°01' E 023°31'0 0.0
2014-Oct-23 12:31N 38°01' E 023°31'0 0.0
2014-Oct-23 11:28N 38°02' E 023°31'0 0.0
2014-Oct-23 10:28N 38°01' E 023°31'0 0.0
2014-Oct-23 09:31N 38°01' E 023°31'0 0.0
2014-Oct-23 08:25N 38°01' E 023°31'0 0.1
2014-Oct-23 07:31N 38°02' E 023°31'2 1.6
2014-Oct-23 06:33N 38°01' E 023°33'2 1.8
2014-Oct-23 05:33N 38°02' E 023°36'49 1.0
2014-Oct-21 04:28N 38°13' E 024°36'3711.9
2014-Oct-21 01:22N 38°44' E 024°11'  

Dump ship's entire track history